createdAt,value
2023-04-19T00:00:50.570Z,53.95
2023-04-19T00:01:57.609Z,53.92
2023-04-19T00:03:02.942Z,54.03
2023-04-19T00:04:12.021Z,54.07
2023-04-19T00:05:15.741Z,53.85
2023-04-19T00:06:18.027Z,53.84
2023-04-19T00:07:20.111Z,53.71
2023-04-19T00:08:22.171Z,53.56
2023-04-19T00:09:25.680Z,53.46
2023-04-19T00:10:28.321Z,53.49
2023-04-19T00:11:30.620Z,53.64
2023-04-19T00:12:33.488Z,53.66
2023-04-19T00:13:35.718Z,53.65
2023-04-19T00:14:37.817Z,53.82
2023-04-19T00:15:39.995Z,53.98
2023-04-19T00:16:42.232Z,53.92
2023-04-19T00:17:44.433Z,53.82
2023-04-19T00:18:47.250Z,53.76
2023-04-19T00:19:49.549Z,53.94
2023-04-19T00:20:51.845Z,53.77
2023-04-19T00:21:54.040Z,53.78
2023-04-19T00:22:56.235Z,53.82
2023-04-19T00:23:58.815Z,53.82
2023-04-19T00:25:01.692Z,53.79
2023-04-19T00:26:04.036Z,53.58
2023-04-19T00:27:06.106Z,53.55
2023-04-19T00:28:09.457Z,53.29
2023-04-19T00:29:12.185Z,53.27
2023-04-19T00:30:16.861Z,53.18
2023-04-19T00:31:19.789Z,53.33
2023-04-19T00:32:22.517Z,53.37
2023-04-19T00:33:25.937Z,53.43
2023-04-19T00:34:27.990Z,53.41
2023-04-19T00:35:31.977Z,53.22
2023-04-19T00:36:35.172Z,53.22
2023-04-19T00:37:37.728Z,53.13
2023-04-19T00:38:40.007Z,53.04
2023-04-19T00:39:45.682Z,53.13
2023-04-19T00:40:47.995Z,53.07
2023-04-19T00:41:50.865Z,53.10
2023-04-19T00:42:55.113Z,53.24
2023-04-19T00:43:58.582Z,53.10
2023-04-19T00:45:03.299Z,53.40
2023-04-19T00:46:06.156Z,53.33
2023-04-19T00:47:12.874Z,53.44
2023-04-19T00:48:17.041Z,53.59
2023-04-19T00:49:23.964Z,53.50
2023-04-19T00:50:26.485Z,53.65
2023-04-19T00:51:29.557Z,53.77
2023-04-19T00:52:34.414Z,53.68
2023-04-19T00:53:38.032Z,53.61
2023-04-19T00:54:42.124Z,53.47
2023-04-19T00:55:45.760Z,53.21
2023-04-19T00:56:49.201Z,53.31
2023-04-19T00:57:53.030Z,53.24
2023-04-19T00:58:57.155Z,53.20
2023-04-19T01:00:00.680Z,53.29
2023-04-19T01:01:05.474Z,53.38
2023-04-19T01:02:09.274Z,53.53
2023-04-19T01:03:11.798Z,53.54
2023-04-19T01:04:15.946Z,53.36
2023-04-19T01:05:24.108Z,53.23
2023-04-19T01:06:30.071Z,53.27
2023-04-19T01:07:33.553Z,53.31
2023-04-19T01:08:35.926Z,53.29
2023-04-19T01:09:42.933Z,53.45
2023-04-19T01:10:45.737Z,53.46
2023-04-19T01:11:47.945Z,53.39
2023-04-19T01:12:52.010Z,53.27
2023-04-19T01:13:59.376Z,53.45
2023-04-19T01:15:02.122Z,53.46
2023-04-19T01:16:08.804Z,53.43
2023-04-19T01:17:14.299Z,53.59
2023-04-19T01:18:16.995Z,53.59
2023-04-19T01:19:19.250Z,53.66
2023-04-19T01:20:24.477Z,53.76
2023-04-19T01:21:26.581Z,53.69
2023-04-19T01:22:28.951Z,53.87
2023-04-19T01:23:31.229Z,54.01
2023-04-19T01:24:33.783Z,53.99
2023-04-19T01:25:36.392Z,53.97
2023-04-19T01:26:39.722Z,53.83
2023-04-19T01:28:01.664Z,53.87
2023-04-19T01:29:04.387Z,53.87
2023-04-19T01:30:08.747Z,53.85
2023-04-19T01:31:11.016Z,53.92
2023-04-19T01:32:13.041Z,54.00
2023-04-19T01:33:15.662Z,54.05
2023-04-19T01:34:18.585Z,54.02
2023-04-19T01:35:20.749Z,53.82
2023-04-19T01:36:22.964Z,53.97
2023-04-19T01:37:25.685Z,53.95
2023-04-19T01:38:28.432Z,53.87
2023-04-19T01:39:31.172Z,53.94
2023-04-19T01:40:33.839Z,54.06
2023-04-19T01:41:35.787Z,53.98
2023-04-19T01:42:37.849Z,54.01
2023-04-19T01:43:40.296Z,53.96
2023-04-19T01:44:44.095Z,53.87
2023-04-19T01:45:46.161Z,53.98
2023-04-19T01:46:48.967Z,53.92
2023-04-19T01:47:52.089Z,53.83
2023-04-19T01:48:54.254Z,53.75
2023-04-19T01:49:56.534Z,53.63
2023-04-19T01:50:58.678Z,53.53
2023-04-19T01:52:01.399Z,53.52
2023-04-19T01:53:03.559Z,53.61
2023-04-19T01:54:05.729Z,53.69
2023-04-19T01:55:08.469Z,53.53
2023-04-19T01:56:11.822Z,53.65
2023-04-19T01:57:13.980Z,53.69
2023-04-19T01:58:16.922Z,53.86
2023-04-19T01:59:20.903Z,53.87
2023-04-19T02:00:23.232Z,53.78
2023-04-19T02:01:25.444Z,53.66
2023-04-19T02:02:27.836Z,53.74
2023-04-19T02:03:31.489Z,53.78
2023-04-19T02:04:34.457Z,53.74
2023-04-19T02:05:39.077Z,53.71
2023-04-19T02:06:41.235Z,53.66
2023-04-19T02:07:43.840Z,53.63
2023-04-19T02:08:46.311Z,53.90
2023-04-19T02:09:48.778Z,53.94
2023-04-19T02:10:51.152Z,54.02
2023-04-19T02:11:53.292Z,54.02
2023-04-19T02:12:56.596Z,53.90
2023-04-19T02:13:59.760Z,53.84
2023-04-19T02:15:05.279Z,53.98
2023-04-19T02:16:11.070Z,53.91
2023-04-19T02:17:13.234Z,53.87
2023-04-19T02:18:15.389Z,53.88
2023-04-19T02:19:17.966Z,53.82
2023-04-19T02:20:20.283Z,53.76
2023-04-19T02:21:24.183Z,53.75
2023-04-19T02:22:26.554Z,53.90
2023-04-19T02:23:28.712Z,53.83
2023-04-19T02:24:30.998Z,53.83
2023-04-19T02:25:33.852Z,53.82
2023-04-19T02:26:39.000Z,53.83
2023-04-19T02:27:41.386Z,53.79
2023-04-19T02:28:44.752Z,53.85
2023-04-19T02:29:47.782Z,53.79
2023-04-19T02:30:50.250Z,53.82
2023-04-19T02:31:52.467Z,53.77
2023-04-19T02:32:55.020Z,53.71
2023-04-19T02:33:58.400Z,53.59
2023-04-19T02:35:01.832Z,53.60
2023-04-19T02:36:06.056Z,53.70
2023-04-19T02:37:08.378Z,53.70
2023-04-19T02:38:10.541Z,53.55
2023-04-19T02:39:12.639Z,53.70
2023-04-19T02:40:14.928Z,53.73
2023-04-19T02:41:17.254Z,53.87
2023-04-19T02:42:19.330Z,53.90
2023-04-19T02:43:21.435Z,53.91
2023-04-19T02:44:23.606Z,53.97
2023-04-19T02:45:25.863Z,54.08
2023-04-19T02:46:30.077Z,54.06
2023-04-19T02:47:32.993Z,54.10
2023-04-19T02:48:35.304Z,54.04
2023-04-19T02:49:37.906Z,54.14
2023-04-19T02:50:40.497Z,54.12
2023-04-19T02:51:43.898Z,54.12
2023-04-19T02:52:46.902Z,54.06
2023-04-19T02:53:49.471Z,54.21
2023-04-19T02:54:51.745Z,54.11
2023-04-19T02:55:53.918Z,54.13
2023-04-19T02:56:56.666Z,54.03
2023-04-19T02:57:59.125Z,54.21
2023-04-19T02:59:02.782Z,54.33
2023-04-19T03:00:06.758Z,54.25
2023-04-19T03:01:09.702Z,54.31
2023-04-19T03:02:11.961Z,54.46
2023-04-19T03:03:14.387Z,54.55
2023-04-19T03:04:16.873Z,54.69
2023-04-19T03:05:19.649Z,54.67
2023-04-19T03:06:22.492Z,54.76
2023-04-19T03:07:24.686Z,54.66
2023-04-19T03:08:27.153Z,54.57
2023-04-19T03:09:29.300Z,54.45
2023-04-19T03:10:33.727Z,54.35
2023-04-19T03:11:36.289Z,54.17
2023-04-19T03:12:38.581Z,54.10
2023-04-19T03:13:40.819Z,54.10
2023-04-19T03:14:43.375Z,54.07
2023-04-19T03:15:46.666Z,54.11
2023-04-19T03:16:48.971Z,54.10
2023-04-19T03:17:51.548Z,53.95
2023-04-19T03:18:54.635Z,54.00
2023-04-19T03:19:58.675Z,54.07
2023-04-19T03:21:02.343Z,53.99
2023-04-19T03:22:07.477Z,54.11
2023-04-19T03:23:10.015Z,54.30
2023-04-19T03:24:12.887Z,54.17
2023-04-19T03:25:17.549Z,54.20
2023-04-19T03:26:21.834Z,54.22
2023-04-19T03:27:27.954Z,54.28
2023-04-19T03:28:32.312Z,54.27
2023-04-19T03:29:39.284Z,54.18
2023-04-19T03:30:43.278Z,54.26
2023-04-19T03:31:45.573Z,54.24
2023-04-19T03:32:48.405Z,54.17
2023-04-19T03:33:50.917Z,54.39
2023-04-19T03:34:54.137Z,54.46
2023-04-19T03:35:57.201Z,54.38
2023-04-19T03:37:00.350Z,54.51
2023-04-19T03:38:02.767Z,54.30
2023-04-19T03:39:04.910Z,54.23
2023-04-19T03:40:09.349Z,54.18
2023-04-19T03:41:24.910Z,54.05
2023-04-19T03:42:35.488Z,54.01
2023-04-19T03:43:48.670Z,54.00
2023-04-19T03:44:51.812Z,53.82
2023-04-19T03:45:54.402Z,53.94
2023-04-19T03:46:57.390Z,53.98
2023-04-19T03:48:02.919Z,54.12
2023-04-19T03:49:08.158Z,54.09
2023-04-19T03:50:13.068Z,54.17
2023-04-19T03:51:16.720Z,54.25
2023-04-19T03:52:19.558Z,54.16
2023-04-19T03:53:24.614Z,54.34
2023-04-19T03:54:26.685Z,54.36
2023-04-19T03:55:29.064Z,54.25
2023-04-19T03:56:31.702Z,54.26
2023-04-19T03:57:34.522Z,54.28
2023-04-19T03:58:39.395Z,54.36
2023-04-19T03:59:43.617Z,54.56
2023-04-19T04:00:46.479Z,54.40
2023-04-19T04:01:48.947Z,54.42
2023-04-19T04:02:51.388Z,54.36
2023-04-19T04:03:57.151Z,54.27
2023-04-19T04:05:02.902Z,54.22
2023-04-19T04:06:06.361Z,54.14
2023-04-19T04:07:08.985Z,54.12
2023-04-19T04:08:11.123Z,53.99
2023-04-19T04:09:13.795Z,53.99
2023-04-19T04:10:16.914Z,53.73
2023-04-19T04:11:19.082Z,53.69
2023-04-19T04:12:23.224Z,53.65
2023-04-19T04:13:27.319Z,53.57
2023-04-19T04:14:34.578Z,53.35
2023-04-19T04:15:37.219Z,53.50
2023-04-19T04:16:40.070Z,53.47
2023-04-19T04:17:43.731Z,53.14
2023-04-19T04:18:48.692Z,53.18
2023-04-19T04:19:51.411Z,53.23
2023-04-19T04:20:54.247Z,53.20
2023-04-19T04:21:57.365Z,52.98
2023-04-19T04:23:01.390Z,52.86
2023-04-19T04:24:04.874Z,52.88
2023-04-19T04:25:12.740Z,52.80
2023-04-19T04:26:15.389Z,52.84
2023-04-19T04:27:22.501Z,52.79
2023-04-19T04:28:30.344Z,52.64
2023-04-19T04:29:33.092Z,52.71
2023-04-19T04:30:37.088Z,52.69
2023-04-19T04:31:40.229Z,52.70
2023-04-19T04:32:43.419Z,52.50
2023-04-19T04:33:46.123Z,52.52
2023-04-19T04:34:49.408Z,52.50
2023-04-19T04:35:56.621Z,52.56
2023-04-19T04:36:59.653Z,52.54
2023-04-19T04:38:08.377Z,52.62
2023-04-19T04:39:06.396Z,52.66
2023-04-19T04:40:10.781Z,52.75
2023-04-19T04:41:12.964Z,52.79
2023-04-19T04:42:15.172Z,52.88
2023-04-19T04:43:17.825Z,52.86
2023-04-19T04:44:20.537Z,52.90
2023-04-19T04:45:23.202Z,52.96
2023-04-19T04:46:26.506Z,53.27
2023-04-19T04:47:34.289Z,53.66
2023-04-19T04:48:38.348Z,53.73
2023-04-19T04:49:41.187Z,53.80
2023-04-19T04:50:43.575Z,53.98
2023-04-19T04:51:48.030Z,53.96
2023-04-19T04:52:52.045Z,53.96
2023-04-19T04:53:56.466Z,54.13
2023-04-19T04:54:58.861Z,54.17
2023-04-19T04:56:03.424Z,54.13
2023-04-19T04:57:06.545Z,54.10
2023-04-19T04:58:08.723Z,54.04
2023-04-19T04:59:15.675Z,54.06
2023-04-19T05:00:20.243Z,54.01
2023-04-19T05:01:24.364Z,54.17
2023-04-19T05:02:27.400Z,53.96
2023-04-19T05:03:29.740Z,53.67
2023-04-19T05:04:34.491Z,53.58
2023-04-19T05:05:37.160Z,54.31
2023-04-19T05:06:39.877Z,54.28
2023-04-19T05:07:43.683Z,53.57
2023-04-19T05:08:47.556Z,53.48
2023-04-19T05:09:54.810Z,53.69
2023-04-19T05:10:59.566Z,54.06
2023-04-19T05:12:04.093Z,53.23
2023-04-19T05:13:07.116Z,53.39
2023-04-19T05:14:09.526Z,52.91
2023-04-19T05:15:12.526Z,52.56
2023-04-19T05:16:16.487Z,52.45
2023-04-19T05:17:20.320Z,52.82
2023-04-19T05:18:23.375Z,52.02
2023-04-19T05:19:25.918Z,52.35
2023-04-19T05:20:29.920Z,52.14
2023-04-19T05:21:37.266Z,51.76
2023-04-19T05:23:01.563Z,51.28
2023-04-19T05:24:06.254Z,51.13
2023-04-19T05:25:10.515Z,50.97
2023-04-19T05:26:14.720Z,50.67
2023-04-19T05:27:17.398Z,50.92
2023-04-19T05:28:20.214Z,50.46
2023-04-19T05:29:27.335Z,49.89
2023-04-19T05:30:30.778Z,49.33
2023-04-19T05:31:33.184Z,49.04
2023-04-19T05:32:40.089Z,48.89
2023-04-19T05:33:44.172Z,48.97
2023-04-19T05:34:46.935Z,49.22
2023-04-19T05:35:51.118Z,49.18
2023-04-19T05:36:53.863Z,49.03
2023-04-19T05:37:56.478Z,48.98
2023-04-19T05:38:59.968Z,49.42
2023-04-19T05:40:04.423Z,49.79
2023-04-19T05:41:07.319Z,50.27
2023-04-19T05:42:10.098Z,50.06
2023-04-19T05:43:12.685Z,50.08
2023-04-19T05:44:15.889Z,49.94
2023-04-19T05:45:18.233Z,49.94
2023-04-19T05:46:20.339Z,49.89
2023-04-19T05:47:22.715Z,49.88
2023-04-19T05:48:42.315Z,49.94
2023-04-19T05:50:59.175Z,49.53
2023-04-19T05:52:03.345Z,49.66
2023-04-19T05:53:10.461Z,49.50
2023-04-19T05:54:12.836Z,49.65
2023-04-19T05:55:15.861Z,49.58
2023-04-19T05:56:19.859Z,49.78
2023-04-19T05:57:22.154Z,49.87
2023-04-19T05:58:26.415Z,49.89
2023-04-19T05:59:29.567Z,49.83
2023-04-19T06:00:31.835Z,49.55
2023-04-19T06:01:36.127Z,48.99
2023-04-19T06:02:38.519Z,49.06
2023-04-19T06:03:41.634Z,49.04
2023-04-19T06:04:45.061Z,48.87
2023-04-19T06:05:47.913Z,48.78
2023-04-19T06:06:51.118Z,48.98
2023-04-19T06:07:59.301Z,49.22
2023-04-19T06:08:57.437Z,49.25
2023-04-19T06:10:00.850Z,49.42
2023-04-19T06:11:11.834Z,49.55
2023-04-19T06:12:09.355Z,49.91
2023-04-19T06:13:11.601Z,49.79
2023-04-19T06:14:14.302Z,49.65
2023-04-19T06:15:17.918Z,49.64
2023-04-19T06:16:21.087Z,49.63
2023-04-19T06:17:23.625Z,49.78
2023-04-19T06:18:26.289Z,50.01
2023-04-19T06:19:28.342Z,50.20
2023-04-19T06:20:30.736Z,50.17
2023-04-19T06:21:33.400Z,50.26
2023-04-19T06:22:47.724Z,50.42
2023-04-19T06:23:49.813Z,50.56
2023-04-19T06:24:51.867Z,50.63
2023-04-19T06:25:53.948Z,50.69
2023-04-19T06:26:57.254Z,50.76
2023-04-19T06:29:01.871Z,50.75
2023-04-19T06:31:10.790Z,50.60
2023-04-19T06:35:19.721Z,50.58
2023-04-19T06:36:21.789Z,50.57
2023-04-19T06:37:23.873Z,50.55
2023-04-19T06:38:25.911Z,50.47
2023-04-19T06:39:27.958Z,50.54
2023-04-19T06:40:30.136Z,50.67
2023-04-19T06:41:32.407Z,50.59
2023-04-19T06:42:35.101Z,50.54
2023-04-19T06:43:37.293Z,50.51
2023-04-19T06:44:39.431Z,50.54
2023-04-19T06:45:42.249Z,50.45
2023-04-19T06:46:45.655Z,50.22
2023-04-19T06:56:06.081Z,50.74
2023-04-19T06:57:08.112Z,50.83
2023-04-19T06:58:10.263Z,50.93
2023-04-19T07:00:16.462Z,51.05
2023-04-19T07:01:19.088Z,51.15
2023-04-19T07:02:21.409Z,51.18
2023-04-19T07:03:24.218Z,51.25
2023-04-19T07:04:27.145Z,51.28
2023-04-19T07:05:31.243Z,51.30
2023-04-19T07:06:36.646Z,51.35
2023-04-19T07:07:38.866Z,51.45
2023-04-19T07:08:49.880Z,51.45
2023-04-19T07:09:45.226Z,51.48
2023-04-19T07:10:47.665Z,51.51
2023-04-19T07:11:49.811Z,51.55
2023-04-19T07:12:52.634Z,51.60
2023-04-19T07:13:55.030Z,51.78
2023-04-19T07:14:57.628Z,52.05
2023-04-19T07:16:03.368Z,52.26
2023-04-19T07:17:05.554Z,52.66
2023-04-19T07:18:08.225Z,52.76
2023-04-19T07:19:10.958Z,52.72
2023-04-19T07:20:13.397Z,52.58
2023-04-19T07:21:15.441Z,52.39
2023-04-19T07:22:17.514Z,52.46
2023-04-19T07:23:19.989Z,52.20
2023-04-19T07:24:22.131Z,52.14
2023-04-19T07:25:24.790Z,52.05
2023-04-19T07:26:27.091Z,51.74
2023-04-19T07:27:29.516Z,51.50
2023-04-19T07:28:31.717Z,51.18
2023-04-19T07:29:37.173Z,51.15
2023-04-19T07:30:39.288Z,50.81
2023-04-19T07:31:41.394Z,50.66
2023-04-19T07:32:43.826Z,50.44
2023-04-19T07:33:47.306Z,50.28
2023-04-19T07:34:49.498Z,50.11
2023-04-19T07:35:51.539Z,49.85
2023-04-19T07:36:53.874Z,49.83
2023-04-19T07:37:57.065Z,49.64
2023-04-19T07:38:59.599Z,49.49
2023-04-19T07:40:02.833Z,49.28
2023-04-19T07:41:05.791Z,49.24
2023-04-19T07:42:08.074Z,49.00
2023-04-19T07:43:10.142Z,48.95
2023-04-19T07:44:12.290Z,48.93
2023-04-19T07:45:15.758Z,48.97
2023-04-19T07:46:18.472Z,48.90
2023-04-19T07:47:21.250Z,48.62
2023-04-19T07:48:23.882Z,48.47
2023-04-19T07:49:26.637Z,48.32
2023-04-19T07:50:29.610Z,48.19
2023-04-19T07:51:31.783Z,48.13
2023-04-19T07:52:33.956Z,48.09
2023-04-19T07:53:36.464Z,48.09
2023-04-19T07:54:38.630Z,47.92
2023-04-19T07:55:40.725Z,47.78
2023-04-19T07:56:43.418Z,47.83
2023-04-19T07:57:45.595Z,47.82
2023-04-19T07:58:56.540Z,47.69
2023-04-19T07:59:51.670Z,47.76
2023-04-19T08:00:53.934Z,47.43
2023-04-19T08:01:56.584Z,47.34
2023-04-19T08:02:58.874Z,47.20
2023-04-19T08:04:02.053Z,47.02
2023-04-19T08:05:06.220Z,46.98
2023-04-19T08:06:08.889Z,46.94
2023-04-19T08:07:11.066Z,46.80
2023-04-19T08:08:13.216Z,46.63
2023-04-19T08:09:15.583Z,45.79
2023-04-19T08:10:22.231Z,45.16
2023-04-19T08:11:24.563Z,45.48
2023-04-19T08:12:35.109Z,45.17
2023-04-19T08:13:32.286Z,44.81
2023-04-19T08:14:43.827Z,44.57
2023-04-19T08:17:50.793Z,43.96
2023-04-19T08:18:53.107Z,44.03
2023-04-19T08:20:06.523Z,43.44
2023-04-19T08:21:12.796Z,42.40
2023-04-19T08:22:17.444Z,40.74
2023-04-19T08:23:29.511Z,41.91
2023-04-19T08:24:27.895Z,42.35
2023-04-19T08:25:32.763Z,42.37
2023-04-19T08:26:39.264Z,42.11
2023-04-19T08:27:43.951Z,42.61
2023-04-19T08:28:45.891Z,42.07
2023-04-19T08:29:48.486Z,42.08
2023-04-19T08:30:50.821Z,42.69
2023-04-19T08:31:52.889Z,43.33
2023-04-19T08:32:57.317Z,43.56
2023-04-19T08:33:59.995Z,43.35
2023-04-19T08:35:02.067Z,43.42
2023-04-19T08:36:06.311Z,43.27
2023-04-19T08:37:08.798Z,43.27
2023-04-19T08:38:11.257Z,43.16
2023-04-19T08:39:24.614Z,43.33
2023-04-19T08:40:19.729Z,43.08
2023-04-19T08:41:22.700Z,42.93
2023-04-19T08:42:35.434Z,43.12
2023-04-19T08:43:30.809Z,43.16
2023-04-19T08:45:49.433Z,43.27
2023-04-19T08:46:53.497Z,43.18
2023-04-19T08:48:01.528Z,43.31
2023-04-19T08:49:10.890Z,42.70
2023-04-19T08:50:31.292Z,42.38
2023-04-19T08:51:22.685Z,42.55
2023-04-19T08:52:29.986Z,42.73
2023-04-19T08:53:36.265Z,41.19
2023-04-19T08:54:44.355Z,40.39
2023-04-19T08:56:08.761Z,40.17
2023-04-19T08:56:59.457Z,40.16
2023-04-19T08:58:05.775Z,40.27
2023-04-19T08:59:17.997Z,41.01
2023-04-19T09:00:14.696Z,41.02
2023-04-19T09:01:30.404Z,40.06
2023-04-19T09:02:21.609Z,39.32
2023-04-19T09:03:34.685Z,40.33
2023-04-19T09:04:38.011Z,41.45
2023-04-19T09:05:41.117Z,41.79
2023-04-19T09:06:43.980Z,42.11
2023-04-19T09:07:49.663Z,42.44
2023-04-19T09:08:52.411Z,42.53
2023-04-19T09:10:10.414Z,42.63
2023-04-19T09:11:13.259Z,42.85
2023-04-19T09:12:17.159Z,42.92
2023-04-19T09:13:23.692Z,41.78
2023-04-19T09:14:27.644Z,42.15
2023-04-19T09:15:38.787Z,42.62
2023-04-19T09:16:42.943Z,42.82
2023-04-19T09:17:48.424Z,41.48
2023-04-19T09:19:22.446Z,40.87
2023-04-19T09:20:00.781Z,41.33
2023-04-19T09:21:06.019Z,42.38
2023-04-19T09:22:12.877Z,42.46
2023-04-19T09:23:16.739Z,42.47
2023-04-19T09:25:04.412Z,42.57
2023-04-19T09:26:19.150Z,43.52
2023-04-19T09:27:00.776Z,43.34
2023-04-19T09:28:16.297Z,41.37
2023-04-19T09:29:21.942Z,40.61
2023-04-19T09:30:32.334Z,40.72
2023-04-19T09:31:50.784Z,40.80
2023-04-19T09:32:49.684Z,41.01
2023-04-19T09:33:58.054Z,40.80
2023-04-19T09:35:00.196Z,39.91
2023-04-19T09:36:03.595Z,39.80
2023-04-19T09:37:17.836Z,39.88
2023-04-19T09:38:17.034Z,40.27
2023-04-19T09:39:30.403Z,39.99
2023-04-19T09:40:32.795Z,39.50
2023-04-19T09:41:36.342Z,38.98
2023-04-19T09:43:06.930Z,39.51
2023-04-19T09:44:08.952Z,39.62
2023-04-19T09:46:10.669Z,40.85
2023-04-19T09:47:26.884Z,40.94
2023-04-19T09:48:29.061Z,40.90
2023-04-19T09:51:02.344Z,41.49
2023-04-19T09:52:05.808Z,41.17
2023-04-19T09:53:08.576Z,40.47
2023-04-19T09:54:20.722Z,40.31
2023-04-19T09:55:30.236Z,40.25
2023-04-19T09:56:38.564Z,40.25
2023-04-19T09:57:49.828Z,40.71
2023-04-19T09:59:04.942Z,41.15
2023-04-19T10:00:06.994Z,40.38
2023-04-19T10:01:15.486Z,39.87
2023-04-19T10:02:16.946Z,39.96
2023-04-19T10:03:21.168Z,39.71
2023-04-19T10:04:44.172Z,39.79
2023-04-19T10:05:40.984Z,39.75
2023-04-19T10:07:07.067Z,39.74
2023-04-19T10:07:58.558Z,39.79
2023-04-19T10:09:01.466Z,39.99
2023-04-19T10:10:18.701Z,39.77
2023-04-19T10:13:59.634Z,39.92
2023-04-19T10:15:01.787Z,40.31
2023-04-19T10:16:18.106Z,40.67
2023-04-19T10:17:13.804Z,40.71
2023-04-19T10:18:18.540Z,40.75
2023-04-19T10:19:22.627Z,41.03
2023-04-19T10:21:46.114Z,41.16
2023-04-19T10:22:50.309Z,41.45
2023-04-19T10:23:53.344Z,41.93
2023-04-19T10:25:15.834Z,42.39
2023-04-19T10:26:19.561Z,42.23
2023-04-19T10:27:25.682Z,42.43
2023-04-19T10:28:30.370Z,42.66
2023-04-19T10:30:01.839Z,42.62
2023-04-19T10:31:05.692Z,43.11
2023-04-19T10:32:14.570Z,42.79
2023-04-19T10:33:27.506Z,42.87
2023-04-19T10:34:39.621Z,42.84
2023-04-19T10:35:44.098Z,42.97
2023-04-19T10:36:48.605Z,42.89
2023-04-19T10:38:13.435Z,43.25
2023-04-19T10:39:40.587Z,43.14
2023-04-19T10:41:00.282Z,42.86
2023-04-19T10:42:02.456Z,42.59
2023-04-19T10:43:15.223Z,42.69
2023-04-19T10:44:18.602Z,42.46
2023-04-19T10:45:35.962Z,42.15
2023-04-19T10:46:40.972Z,42.05
2023-04-19T10:47:46.108Z,41.67
2023-04-19T10:48:56.375Z,41.60
2023-04-19T10:51:19.757Z,42.19
2023-04-19T10:52:32.951Z,42.16
2023-04-19T10:54:12.986Z,41.97
2023-04-19T10:55:16.505Z,42.15
2023-04-19T10:56:35.052Z,42.19
2023-04-19T10:58:06.384Z,42.54
2023-04-19T10:59:16.283Z,42.77
2023-04-19T11:00:24.122Z,42.89
2023-04-19T11:04:33.231Z,43.49
2023-04-19T11:05:50.604Z,43.80
2023-04-19T11:07:06.917Z,44.24
2023-04-19T11:08:09.606Z,43.83
2023-04-19T11:09:11.795Z,43.67
2023-04-19T11:11:34.803Z,43.80
2023-04-19T11:12:39.891Z,43.90
2023-04-19T11:13:43.487Z,43.99
2023-04-19T11:14:48.591Z,44.07
2023-04-19T11:15:50.953Z,44.18
2023-04-19T11:16:54.230Z,44.53
2023-04-19T11:18:11.288Z,44.77
2023-04-19T11:19:02.821Z,44.57
2023-04-19T11:20:07.288Z,44.54
2023-04-19T11:22:41.172Z,44.81
2023-04-19T11:25:39.015Z,45.04
2023-04-19T11:26:48.139Z,45.08
2023-04-19T11:27:55.340Z,45.05
2023-04-19T11:28:57.609Z,45.34
2023-04-19T11:30:08.794Z,44.98
2023-04-19T11:31:11.638Z,44.90
2023-04-19T11:32:14.190Z,44.93
2023-04-19T11:33:19.407Z,44.91
2023-04-19T11:34:23.298Z,44.86
2023-04-19T11:35:26.993Z,44.87
2023-04-19T11:36:31.274Z,44.91
2023-04-19T11:37:36.558Z,45.19
2023-04-19T11:38:38.982Z,45.41
2023-04-19T11:39:46.332Z,45.59
2023-04-19T11:40:52.728Z,45.54
2023-04-19T11:41:54.836Z,45.77
2023-04-19T11:44:14.452Z,45.77
2023-04-19T11:45:34.460Z,46.04
2023-04-19T11:46:35.549Z,46.05
2023-04-19T11:47:48.958Z,45.93
2023-04-19T11:48:53.265Z,46.01
2023-04-19T11:49:55.743Z,46.06
2023-04-19T11:50:59.379Z,46.07
2023-04-19T11:52:05.592Z,46.26
2023-04-19T11:53:21.899Z,46.34
2023-04-19T11:54:24.224Z,46.51
2023-04-19T11:55:26.329Z,46.47
2023-04-19T11:56:28.736Z,46.53
2023-04-19T11:58:57.884Z,46.88
2023-04-19T12:00:10.539Z,47.09
2023-04-19T12:02:42.412Z,47.21
2023-04-19T12:05:09.768Z,47.49
2023-04-19T12:06:19.377Z,47.70
2023-04-19T12:07:21.511Z,47.79
2023-04-19T12:09:43.549Z,47.99
2023-04-19T12:10:56.727Z,48.01
2023-04-19T12:11:59.392Z,48.17
2023-04-19T12:13:18.752Z,48.17
2023-04-19T12:14:23.103Z,48.38
2023-04-19T12:15:42.569Z,48.83
2023-04-19T12:16:45.552Z,49.10
2023-04-19T12:19:15.734Z,49.34
2023-04-19T12:20:36.230Z,49.64
2023-04-19T12:21:40.775Z,49.68
2023-04-19T12:22:44.340Z,49.92
2023-04-19T12:23:46.525Z,49.85
2023-04-19T12:24:51.194Z,49.93
2023-04-19T12:25:54.182Z,50.01
2023-04-19T12:26:57.833Z,50.36
2023-04-19T12:29:15.088Z,50.67
2023-04-19T12:30:19.381Z,50.67
2023-04-19T12:31:21.629Z,50.62
2023-04-19T12:32:24.298Z,50.81
2023-04-19T12:33:26.939Z,50.62
2023-04-19T12:34:35.379Z,50.62
2023-04-19T12:35:37.621Z,50.71
2023-04-19T12:36:39.922Z,50.70
2023-04-19T12:37:42.189Z,50.77
2023-04-19T12:38:44.347Z,50.99
2023-04-19T12:39:46.920Z,51.15
2023-04-19T12:40:50.252Z,51.23
2023-04-19T12:42:01.689Z,51.53
2023-04-19T12:43:05.733Z,51.43
2023-04-19T12:44:08.567Z,51.53
2023-04-19T12:45:12.108Z,51.61
2023-04-19T12:46:14.370Z,51.59
2023-04-19T12:47:17.676Z,51.44
2023-04-19T12:48:19.816Z,51.32
2023-04-19T12:49:22.505Z,51.44
2023-04-19T12:50:24.763Z,51.38
2023-04-19T12:51:28.472Z,51.42
2023-04-19T12:52:30.694Z,51.60
2023-04-19T12:53:33.256Z,51.71
2023-04-19T12:54:36.416Z,51.41
2023-04-19T12:55:38.999Z,51.38
2023-04-19T12:56:41.813Z,51.15
2023-04-19T12:57:44.442Z,50.93
2023-04-19T12:58:47.011Z,51.04
2023-04-19T12:59:49.901Z,51.00
2023-04-19T13:00:52.310Z,50.95
2023-04-19T13:01:54.467Z,51.04
2023-04-19T13:02:57.277Z,51.06
2023-04-19T13:04:00.334Z,51.14
2023-04-19T13:05:03.150Z,51.25
2023-04-19T13:06:07.949Z,51.31
2023-04-19T13:07:10.220Z,51.35
2023-04-19T13:08:12.531Z,51.39
2023-04-19T13:09:15.400Z,51.45
2023-04-19T13:10:27.993Z,51.38
2023-04-19T13:11:30.236Z,51.44
2023-04-19T13:12:33.102Z,51.37
2023-04-19T13:13:35.252Z,51.39
2023-04-19T13:14:37.463Z,51.47
2023-04-19T13:15:39.489Z,51.62
2023-04-19T13:16:41.972Z,51.71
2023-04-19T13:17:44.085Z,51.80
2023-04-19T13:18:47.176Z,51.94
2023-04-19T13:19:50.665Z,51.92
2023-04-19T13:20:53.057Z,51.95
2023-04-19T13:21:55.467Z,51.75
2023-04-19T13:22:57.735Z,51.68
2023-04-19T13:23:59.921Z,51.59
2023-04-19T13:26:20.271Z,51.62
2023-04-19T13:27:26.731Z,51.78
2023-04-19T13:28:36.158Z,51.72
2023-04-19T13:29:38.342Z,51.82
2023-04-19T13:31:59.858Z,51.70
2023-04-19T13:33:02.684Z,51.98
2023-04-19T13:34:10.084Z,52.04
2023-04-19T13:35:12.259Z,52.20
2023-04-19T13:36:17.407Z,52.15
2023-04-19T13:37:21.506Z,52.10
2023-04-19T13:38:27.072Z,51.89
2023-04-19T13:39:29.850Z,51.79
2023-04-19T13:40:32.049Z,51.77
2023-04-19T13:41:34.931Z,51.70
2023-04-19T13:42:41.991Z,51.91
2023-04-19T13:43:44.821Z,51.94
2023-04-19T13:44:49.384Z,52.00
2023-04-19T13:45:52.301Z,52.15
2023-04-19T13:46:55.115Z,52.25
2023-04-19T13:47:57.159Z,52.12
2023-04-19T13:48:59.394Z,52.23
2023-04-19T13:50:01.424Z,52.07
2023-04-19T13:51:05.506Z,52.08
2023-04-19T13:52:08.920Z,52.05
2023-04-19T13:53:11.255Z,52.13
2023-04-19T13:54:13.446Z,52.19
2023-04-19T13:55:15.696Z,52.13
2023-04-19T13:56:19.804Z,52.06
2023-04-19T13:57:21.917Z,51.86
2023-04-19T13:58:25.990Z,51.80
2023-04-19T13:59:28.122Z,51.73
2023-04-19T14:00:32.619Z,51.75
2023-04-19T14:01:37.418Z,51.72
2023-04-19T14:02:43.351Z,51.70
2023-04-19T14:03:45.755Z,51.64
2023-04-19T14:04:50.711Z,51.49
2023-04-19T14:05:55.114Z,51.47
2023-04-19T14:07:02.053Z,51.48
2023-04-19T14:08:08.521Z,51.58
2023-04-19T14:09:10.797Z,51.41
2023-04-19T14:10:13.795Z,51.38
2023-04-19T14:11:16.383Z,51.32
2023-04-19T14:12:18.590Z,51.19
2023-04-19T14:13:20.751Z,51.21
2023-04-19T14:14:23.034Z,51.26
2023-04-19T14:15:32.590Z,51.28
2023-04-19T14:16:36.767Z,51.31
2023-04-19T14:17:40.611Z,51.21
2023-04-19T14:18:43.382Z,51.24
2023-04-19T14:19:45.386Z,51.33
2023-04-19T14:20:49.046Z,51.38
2023-04-19T14:21:51.672Z,51.42
2023-04-19T14:22:53.725Z,51.45
2023-04-19T14:23:55.783Z,51.42
2023-04-19T14:24:58.802Z,51.47
2023-04-19T14:26:01.497Z,51.44
2023-04-19T14:27:10.348Z,51.35
2023-04-19T14:28:10.387Z,51.37
2023-04-19T14:29:12.475Z,51.32
2023-04-19T14:30:16.609Z,51.20
2023-04-19T14:31:23.633Z,50.87
2023-04-19T14:32:28.936Z,50.53
2023-04-19T14:33:32.350Z,50.25
2023-04-19T14:34:34.458Z,50.27
2023-04-19T14:35:37.679Z,50.46
2023-04-19T14:36:39.816Z,50.65